Time;durP1;ratioP1;P1;durP2;ratioP2;P2;SDS_P1;SDS_P2;PMS_P1;PMS_P2;Temp;Humidity;BMP_temperature;BMP_pressure;BME280_temperature;BME280_humidity;BME280_pressure;Samples;Min_cycle;Max_cycle;Signal;HPM_P1;HPM_P2
2024/01/03 00:00:29;;;;;;;2.97;2.65;;;-20.50;91.60;;;;;;5020687;28;20041;-79
2024/01/03 00:02:56;;;;;;;9.05;4.32;;;-20.50;91.60;;;;;;5021570;28;20426;-77
2024/01/03 00:05:23;;;;;;;5.78;3.72;;;-20.50;91.60;;;;;;5014007;28;20034;-77
2024/01/03 00:07:50;;;;;;;4.47;2.88;;;-20.50;91.70;;;;;;5029263;28;20022;-78
2024/01/03 00:10:28;;;;;;;;;;;-20.50;91.70;;;;;;5017839;28;20091;-78
2024/01/03 00:12:53;;;;;;;4.65;3.25;;;-20.50;91.70;;;;;;5022820;28;19917;-80
2024/01/03 00:16:03;;;;;;;5.45;2.67;;;-20.50;91.60;;;;;;5040509;28;20014;-81
2024/01/03 00:18:51;;;;;;;8.00;4.78;;;-20.50;91.60;;;;;;5024256;28;20028;-81
2024/01/03 00:21:25;;;;;;;4.45;3.85;;;-20.50;91.60;;;;;;5033341;28;20368;-79
2024/01/03 00:24:03;;;;;;;14.93;7.05;;;-20.50;91.50;;;;;;5033186;28;20033;-79
2024/01/03 00:26:30;;;;;;;6.15;4.53;;;-20.60;91.50;;;;;;5013753;28;20033;-81
2024/01/03 00:28:59;;;;;;;9.15;6.00;;;-20.60;91.50;;;;;;5029104;28;20410;-79
2024/01/03 00:31:37;;;;;;;7.13;3.00;;;-20.60;91.50;;;;;;5028966;28;20047;-81
2024/01/03 00:34:05;;;;;;;9.13;4.78;;;-20.70;91.60;;;;;;5033277;28;20367;-78
2024/01/03 00:36:32;;;;;;;5.40;3.10;;;-20.70;91.70;;;;;;5033058;28;20014;-78
2024/01/03 00:38:58;;;;;;;8.43;4.50;;;-20.70;91.80;;;;;;5032870;28;20025;-78
2024/01/03 00:41:23;;;;;;;10.15;6.47;;;-20.60;91.90;;;;;;5033229;28;20359;-78
2024/01/03 00:43:49;;;;;;;9.18;5.57;;;-20.60;91.90;;;;;;5027193;28;20033;-79
2024/01/03 00:46:15;;;;;;;7.30;6.28;;;-20.60;91.70;;;;;;5029319;28;20029;-78
2024/01/03 00:48:41;;;;;;;8.98;3.38;;;-20.70;91.60;;;;;;5034346;28;20068;-78
2024/01/03 00:51:07;;;;;;;8.93;5.38;;;-20.70;91.70;;;;;;5033954;28;20367;-78
2024/01/03 00:53:33;;;;;;;10.95;4.97;;;-20.80;91.70;;;;;;5034129;28;20021;-78
2024/01/03 00:56:00;;;;;;;8.00;3.22;;;-20.70;91.90;;;;;;5033328;28;20124;-78
2024/01/03 00:58:26;;;;;;;6.32;3.67;;;-20.80;91.90;;;;;;5033179;28;20028;-78
2024/01/03 01:00:54;;;;;;;10.43;4.88;;;-20.80;91.90;;;;;;5032627;28;20104;-77
2024/01/03 01:03:20;;;;;;;5.82;4.00;;;-20.70;92.10;;;;;;5032398;28;20075;-79
2024/01/03 01:05:46;;;;;;;9.95;4.15;;;-20.70;92.40;;;;;;5014511;28;20410;-78
2024/01/03 01:08:15;;;;;;;6.82;3.60;;;-20.70;92.10;;;;;;5029349;28;20018;-78
2024/01/03 01:10:41;;;;;;;9.20;4.97;;;-20.60;92.00;;;;;;5032118;28;20046;-79
2024/01/03 01:13:06;;;;;;;11.60;7.15;;;-20.60;92.00;;;;;;5040148;28;20547;-79
2024/01/03 01:15:32;;;;;;;6.28;4.43;;;-20.70;91.90;;;;;;5032158;28;20117;-78
2024/01/03 01:17:58;;;;;;;10.32;4.43;;;-20.80;91.70;;;;;;5033110;28;20056;-77
2024/01/03 01:20:24;;;;;;;7.75;4.03;;;-20.90;91.80;;;;;;5032538;28;20029;-78
2024/01/03 01:22:50;;;;;;;9.38;5.15;;;-20.90;91.90;;;;;;5032044;28;20418;-79
2024/01/03 01:25:17;;;;;;;10.85;4.38;;;-20.90;92.00;;;;;;5031865;28;20095;-79
2024/01/03 01:27:43;;;;;;;8.43;5.40;;;-20.90;92.10;;;;;;5032092;28;20112;-77
2024/01/03 01:30:09;;;;;;;9.13;4.32;;;-20.90;92.20;;;;;;5031869;28;20119;-79
2024/01/03 01:32:35;;;;;;;7.00;3.80;;;-20.80;92.20;;;;;;5031845;28;20021;-79
2024/01/03 01:35:00;;;;;;;13.38;4.47;;;-20.80;92.10;;;;;;5031346;28;20549;-78
2024/01/03 01:37:26;;;;;;;6.97;4.03;;;-20.80;92.20;;;;;;5032621;28;20037;-79
2024/01/03 01:39:52;;;;;;;6.85;3.72;;;-20.70;92.30;;;;;;5016265;28;20034;-79
2024/01/03 01:42:18;;;;;;;3.33;2.33;;;-20.70;92.30;;;;;;5031710;28;20108;-79
2024/01/03 01:44:44;;;;;;;5.15;2.65;;;-20.70;92.30;;;;;;5013693;28;20025;-79
2024/01/03 01:47:12;;;;;;;5.57;3.63;;;-20.70;92.30;;;;;;5031260;28;20029;-79
2024/01/03 01:49:41;;;;;;;4.85;3.13;;;-20.70;92.30;;;;;;5031841;28;20014;-79
2024/01/03 01:52:10;;;;;;;3.55;3.10;;;-20.60;92.30;;;;;;5031947;28;20029;-79
2024/01/03 01:54:37;;;;;;;8.45;6.13;;;-20.70;92.30;;;;;;5034944;28;20105;-78
2024/01/03 01:57:04;;;;;;;6.75;3.88;;;-20.70;92.40;;;;;;5014725;28;20026;-79
2024/01/03 01:59:30;;;;;;;;;;;-20.70;92.20;;;;;;5032924;28;20025;-78
2024/01/03 02:01:56;;;;;;;;;;;-20.70;92.20;;;;;;5013619;28;19988;-78
2024/01/03 02:04:22;;;;;;;7.15;2.38;;;-20.70;92.10;;;;;;5029247;28;19939;-78
2024/01/03 02:06:49;;;;;;;4.57;3.10;;;-20.70;92.00;;;;;;5031928;28;20017;-79
2024/01/03 02:09:14;;;;;;;;;;;-20.70;92.10;;;;;;5005208;28;20514;-78
2024/01/03 02:11:46;;;;;;;;;;;-20.70;92.20;;;;;;5013432;28;19957;-78
2024/01/03 02:14:11;;;;;;;1.65;1.55;;;-20.70;92.10;;;;;;5032105;28;19909;-78
2024/01/03 02:16:37;;;;;;;10.27;3.50;;;-20.80;92.10;;;;;;5032080;28;20028;-79
2024/01/03 02:19:06;;;;;;;6.40;4.70;;;-20.90;92.20;;;;;;5025612;28;20038;-79
2024/01/03 02:21:31;;;;;;;3.90;2.85;;;-20.90;92.30;;;;;;5030135;28;20029;-79
2024/01/03 02:23:57;;;;;;;7.72;2.60;;;-21.00;92.40;;;;;;5031068;28;20018;-79
2024/01/03 02:26:23;;;;;;;5.55;2.15;;;-20.90;92.40;;;;;;5013783;28;20080;-78
2024/01/03 02:28:49;;;;;;;5.45;3.20;;;-20.90;92.50;;;;;;5031375;28;20045;-78
2024/01/03 02:31:14;;;;;;;9.50;4.60;;;-20.90;92.60;;;;;;5012159;28;20033;-79
2024/01/03 02:33:40;;;;;;;8.95;6.03;;;-20.90;92.70;;;;;;5031053;28;20025;-80
2024/01/03 02:36:07;;;;;;;13.90;5.57;;;-20.90;92.50;;;;;;5031107;28;20029;-79
2024/01/03 02:38:32;;;;;;;3.20;2.45;;;-21.00;92.50;;;;;;5021322;28;20032;-79
2024/01/03 02:40:58;;;;;;;7.65;4.18;;;-21.00;92.60;;;;;;5022267;28;20037;-78
2024/01/03 02:43:24;;;;;;;8.27;4.20;;;-21.00;92.60;;;;;;5031651;28;20041;-78
2024/01/03 02:45:50;;;;;;;7.90;3.75;;;-21.00;92.70;;;;;;5023660;28;20049;-79
2024/01/03 02:48:16;;;;;;;5.47;3.35;;;-21.00;92.70;;;;;;5035022;28;20026;-79
2024/01/03 02:50:47;;;;;;;8.30;4.15;;;-21.00;92.70;;;;;;5036785;28;20072;-78
2024/01/03 02:53:14;;;;;;;3.50;2.47;;;-20.90;92.80;;;;;;5036765;28;20098;-79
2024/01/03 02:55:39;;;;;;;4.75;2.90;;;-20.90;92.90;;;;;;5036154;28;20510;-79
2024/01/03 02:58:05;;;;;;;3.95;2.63;;;-20.90;92.80;;;;;;5035778;28;20101;-80
2024/01/03 03:00:31;;;;;;;6.43;4.20;;;-20.90;92.80;;;;;;5036642;28;20398;-79
2024/01/03 03:02:57;;;;;;;5.25;2.67;;;-20.90;92.80;;;;;;5035763;28;20053;-79
2024/01/03 03:05:22;;;;;;;7.53;4.32;;;-21.00;92.70;;;;;;5038989;28;20402;-79
2024/01/03 03:07:48;;;;;;;3.97;2.17;;;-21.00;92.60;;;;;;5023250;28;20064;-78
2024/01/03 03:10:15;;;;;;;4.60;3.08;;;-21.20;92.50;;;;;;5034409;28;20053;-78
2024/01/03 03:12:41;;;;;;;8.55;5.82;;;-21.20;92.60;;;;;;5033997;28;20034;-79
2024/01/03 03:15:08;;;;;;;5.68;3.35;;;-21.20;92.70;;;;;;5035022;28;20128;-80
2024/01/03 03:17:34;;;;;;;;;;;-21.20;92.70;;;;;;5035007;28;20021;-80
2024/01/03 03:19:59;;;;;;;;;;;-21.20;92.70;;;;;;5032630;28;19990;-79
2024/01/03 03:22:25;;;;;;;10.90;4.53;;;-21.30;92.60;;;;;;5034382;28;20317;-78
2024/01/03 03:24:51;;;;;;;8.88;4.13;;;-21.30;92.50;;;;;;5034086;28;20103;-79
2024/01/03 03:27:16;;;;;;;3.45;2.40;;;-21.30;92.60;;;;;;5016267;28;20032;-79
2024/01/03 03:29:42;;;;;;;2.17;1.85;;;-21.20;92.80;;;;;;5034358;28;20044;-79
2024/01/03 03:32:10;;;;;;;6.40;4.80;;;-21.20;92.90;;;;;;5034076;28;20029;-80
2024/01/03 03:34:36;;;;;;;3.72;2.80;;;-21.10;93.00;;;;;;5034203;28;20101;-80
2024/01/03 03:37:02;;;;;;;14.48;5.10;;;-21.20;92.90;;;;;;5037512;28;20062;-80
2024/01/03 03:39:27;;;;;;;7.00;4.60;;;-21.30;92.90;;;;;;5034479;28;20059;-79
2024/01/03 03:41:53;;;;;;;3.28;2.63;;;-21.30;92.80;;;;;;5035169;28;20025;-79
2024/01/03 03:44:19;;;;;;;4.38;2.92;;;-21.30;92.80;;;;;;5034772;28;20029;-78
2024/01/03 03:46:45;;;;;;;2.97;2.13;;;-21.40;92.80;;;;;;5031663;28;20087;-78
2024/01/03 03:49:10;;;;;;;3.50;2.85;;;-21.40;92.80;;;;;;5032547;28;20476;-78
2024/01/03 03:51:36;;;;;;;4.82;2.90;;;-21.40;92.70;;;;;;5026385;28;20022;-79
2024/01/03 03:54:02;;;;;;;8.98;4.70;;;-21.40;92.80;;;;;;5031219;28;20022;-77
2024/01/03 03:56:30;;;;;;;0.88;0.82;;;-21.40;92.80;;;;;;5033026;28;20014;-78
2024/01/03 03:58:56;;;;;;;6.93;4.30;;;-21.40;92.70;;;;;;5033592;28;20382;-78
2024/01/03 04:01:22;;;;;;;2.33;1.50;;;-21.40;92.80;;;;;;5035126;28;20028;-78
2024/01/03 04:03:48;;;;;;;5.22;3.38;;;-21.30;92.70;;;;;;5034957;28;20041;-79
2024/01/03 04:06:15;;;;;;;10.13;5.70;;;-21.40;92.70;;;;;;5035355;28;20120;-80
2024/01/03 04:08:45;;;;;;;3.70;2.80;;;-21.40;92.50;;;;;;5033771;28;20061;-79
2024/01/03 04:11:11;;;;;;;3.55;1.45;;;-21.40;92.40;;;;;;5034315;28;20048;-79
2024/01/03 04:13:40;;;;;;;7.50;3.60;;;-21.40;92.40;;;;;;5040281;28;20045;-79
2024/01/03 04:16:07;;;;;;;5.28;3.30;;;-21.40;92.80;;;;;;5035817;28;20037;-79
2024/01/03 04:18:34;;;;;;;4.55;2.55;;;-21.40;92.50;;;;;;5014450;28;20021;-80
2024/01/03 04:21:00;;;;;;;;;;;-21.50;92.40;;;;;;5028710;28;20392;-79
2024/01/03 04:23:26;;;;;;;5.72;2.95;;;-21.50;92.50;;;;;;5033293;28;19912;-80
2024/01/03 04:25:51;;;;;;;8.45;3.05;;;-21.50;92.50;;;;;;5033210;28;20041;-79
2024/01/03 04:28:17;;;;;;;14.50;7.05;;;-21.50;92.50;;;;;;5033295;28;20053;-79
2024/01/03 04:30:43;;;;;;;5.13;3.65;;;-21.50;92.40;;;;;;5034633;28;20105;-80
2024/01/03 04:33:09;;;;;;;4.88;2.45;;;-21.50;92.30;;;;;;5034239;28;20065;-78
2024/01/03 04:35:34;;;;;;;3.63;2.65;;;-21.50;92.40;;;;;;5032870;28;20582;-79
2024/01/03 04:38:02;;;;;;;6.10;3.65;;;-21.40;92.50;;;;;;5032860;28;20029;-80
2024/01/03 04:40:32;;;;;;;3.85;2.10;;;-21.50;92.30;;;;;;5014863;28;20025;-79
2024/01/03 04:42:59;;;;;;;6.85;4.53;;;-21.50;92.30;;;;;;5033269;28;20097;-78
2024/01/03 04:45:24;;;;;;;4.45;2.50;;;-21.50;92.20;;;;;;5014760;28;20525;-79
2024/01/03 04:47:50;;;;;;;10.70;5.38;;;-21.60;92.20;;;;;;5032755;28;20025;-78
2024/01/03 04:50:17;;;;;;;2.25;2.08;;;-21.70;92.20;;;;;;5032653;28;20030;-77
2024/01/03 04:52:43;;;;;;;;;;;-21.70;92.30;;;;;;5032931;28;20052;-79
2024/01/03 04:55:09;;;;;;;13.35;5.28;;;-21.70;92.20;;;;;;5014751;28;20323;-78
2024/01/03 04:57:35;;;;;;;4.50;2.88;;;-21.80;92.20;;;;;;5014383;28;20026;-79
2024/01/03 05:00:01;;;;;;;11.68;4.45;;;-21.80;92.40;;;;;;5032482;28;20475;-79
2024/01/03 05:02:27;;;;;;;6.40;4.13;;;-21.90;92.50;;;;;;5014500;28;20048;-78
2024/01/03 05:04:53;;;;;;;5.45;2.97;;;-21.80;92.60;;;;;;5032205;28;20033;-76
2024/01/03 05:07:19;;;;;;;4.03;2.55;;;-21.80;92.70;;;;;;5028380;28;20022;-79
2024/01/03 05:09:44;;;;;;;8.43;5.72;;;-21.70;92.80;;;;;;5031137;28;20029;-79
2024/01/03 05:12:10;;;;;;;13.70;3.25;;;-21.80;92.80;;;;;;5031755;28;20080;-78
2024/01/03 05:14:37;;;;;;;26.90;7.63;;;-21.90;92.60;;;;;;5014640;28;20033;-79
2024/01/03 05:17:08;;;;;;;10.40;6.55;;;-22.00;92.80;;;;;;5034692;28;20037;-81
2024/01/03 05:19:34;;;;;;;17.17;4.10;;;-22.00;92.70;;;;;;5033134;28;20143;-77
2024/01/03 05:22:00;;;;;;;4.68;2.97;;;-22.00;92.70;;;;;;5016794;28;20108;-78
2024/01/03 05:24:27;;;;;;;2.95;1.92;;;-22.00;92.80;;;;;;5008919;28;20036;-78
2024/01/03 05:26:53;;;;;;;8.25;4.35;;;-22.00;92.80;;;;;;5025405;28;20025;-78
2024/01/03 05:29:18;;;;;;;15.07;6.85;;;-21.90;92.90;;;;;;5032284;28;20033;-77
2024/01/03 05:31:44;;;;;;;3.53;2.38;;;-21.90;93.00;;;;;;5029527;28;20033;-79
2024/01/03 05:34:11;;;;;;;6.55;3.50;;;-21.80;93.10;;;;;;5023190;28;20029;-78
2024/01/03 05:36:36;;;;;;;8.65;4.40;;;-21.80;93.20;;;;;;5030455;28;20107;-79
2024/01/03 05:39:02;;;;;;;3.10;2.67;;;-21.70;93.30;;;;;;5020816;28;20059;-78
2024/01/03 05:41:28;;;;;;;7.20;3.50;;;-21.70;93.10;;;;;;5031482;28;20037;-77
2024/01/03 05:43:54;;;;;;;7.32;4.10;;;-21.80;92.90;;;;;;5032315;28;20028;-77
2024/01/03 05:46:20;;;;;;;9.45;4.30;;;-21.90;92.80;;;;;;5011280;28;20196;-79
2024/01/03 05:48:46;;;;;;;7.60;4.13;;;-21.90;92.70;;;;;;5032226;28;20021;-79
2024/01/03 05:51:11;;;;;;;11.40;3.22;;;-21.90;92.50;;;;;;5024320;28;20041;-77
2024/01/03 05:53:37;;;;;;;9.23;4.60;;;-21.80;92.60;;;;;;5025831;28;20036;-78
2024/01/03 05:56:04;;;;;;;9.45;5.70;;;-21.80;92.40;;;;;;5033197;28;20037;-79
2024/01/03 05:58:30;;;;;;;6.47;2.85;;;-21.90;92.20;;;;;;5034701;28;20056;-79
2024/01/03 06:00:56;;;;;;;4.50;3.10;;;-21.80;92.20;;;;;;5012105;28;20069;-77
2024/01/03 06:03:22;;;;;;;5.80;3.60;;;-21.90;92.10;;;;;;5016571;28;20068;-79
2024/01/03 06:05:47;;;;;;;2.20;1.90;;;-21.90;92.10;;;;;;5013569;28;20041;-78
2024/01/03 06:08:13;;;;;;;8.07;4.70;;;-21.90;92.10;;;;;;5032373;28;20022;-78
2024/01/03 06:10:39;;;;;;;6.82;3.95;;;-22.00;92.00;;;;;;5031646;28;20089;-78
2024/01/03 06:13:05;;;;;;;12.73;3.67;;;-21.90;92.10;;;;;;5008826;28;20042;-79
2024/01/03 06:15:31;;;;;;;6.90;3.10;;;-21.90;91.90;;;;;;5023190;28;20152;-79
2024/01/03 06:17:57;;;;;;;5.40;2.92;;;-21.90;91.80;;;;;;5025192;28;20036;-77
2024/01/03 06:20:22;;;;;;;7.90;4.85;;;-21.80;92.20;;;;;;5033227;28;20037;-79
2024/01/03 06:22:48;;;;;;;11.57;4.93;;;-21.70;91.90;;;;;;5035276;28;20032;-78
2024/01/03 06:25:14;;;;;;;6.38;2.42;;;-21.80;91.80;;;;;;5023572;28;20038;-78
2024/01/03 06:27:40;;;;;;;9.40;4.82;;;-21.70;92.00;;;;;;5035565;28;20021;-78
2024/01/03 06:30:06;;;;;;;6.88;6.18;;;-21.70;92.10;;;;;;5030625;28;20458;-76
2024/01/03 06:32:32;;;;;;;10.75;4.47;;;-21.70;92.00;;;;;;5017562;28;20026;-78
2024/01/03 06:34:57;;;;;;;14.82;4.75;;;-21.80;91.80;;;;;;5035089;28;20033;-80
2024/01/03 06:37:23;;;;;;;8.65;5.75;;;-21.80;91.80;;;;;;5020210;28;20028;-81
2024/01/03 06:39:49;;;;;;;6.32;3.40;;;-21.80;91.90;;;;;;5031026;28;20213;-79
2024/01/03 06:42:15;;;;;;;5.03;2.38;;;-21.80;91.80;;;;;;5031048;28;20524;-78
2024/01/03 06:44:41;;;;;;;3.83;2.92;;;-21.80;91.80;;;;;;5029032;28;20033;-80
2024/01/03 06:47:06;;;;;;;4.82;2.78;;;-21.80;92.00;;;;;;5034854;28;20091;-77
2024/01/03 06:49:32;;;;;;;6.60;5.50;;;-21.70;92.20;;;;;;5035109;28;20431;-79
2024/01/03 06:51:58;;;;;;;4.22;2.85;;;-21.60;92.30;;;;;;5035571;28;20025;-79
2024/01/03 06:54:24;;;;;;;8.25;3.47;;;-21.50;92.10;;;;;;5004552;28;20064;-80
2024/01/03 06:56:58;;;;;;;2.28;1.92;;;-21.50;91.80;;;;;;5021696;28;20053;-80
2024/01/03 06:59:24;;;;;;;9.45;4.03;;;-21.50;91.70;;;;;;5024264;28;20025;-81
2024/01/03 07:01:49;;;;;;;6.22;2.90;;;-21.40;91.90;;;;;;5036311;28;20031;-79
2024/01/03 07:04:15;;;;;;;4.22;3.83;;;-21.30;92.00;;;;;;5036567;28;20021;-78
2024/01/03 07:06:41;;;;;;;1.95;1.35;;;-21.10;92.00;;;;;;5033451;28;20141;-78
2024/01/03 07:09:08;;;;;;;6.18;2.85;;;-21.00;92.10;;;;;;5034611;28;20513;-79
2024/01/03 07:11:34;;;;;;;8.02;4.00;;;-21.00;92.00;;;;;;5034479;28;20045;-78
2024/01/03 07:13:59;;;;;;;15.90;4.47;;;-20.90;92.10;;;;;;5031923;28;20024;-79
2024/01/03 07:16:26;;;;;;;5.43;4.63;;;-20.80;92.20;;;;;;5036173;28;20021;-78
2024/01/03 07:18:52;;;;;;;7.38;2.72;;;-20.80;91.90;;;;;;5013100;28;20049;-80
2024/01/03 07:21:19;;;;;;;5.55;3.33;;;-20.80;91.30;;;;;;5035104;28;20037;-80
2024/01/03 07:23:45;;;;;;;7.30;3.38;;;-20.70;91.40;;;;;;5036856;28;20079;-79
2024/01/03 07:26:11;;;;;;;7.13;3.58;;;-20.60;91.60;;;;;;5034346;28;20037;-80
2024/01/03 07:28:37;;;;;;;3.08;2.67;;;-20.60;91.30;;;;;;5034128;28;20530;-79
2024/01/03 07:31:02;;;;;;;8.30;4.40;;;-20.60;91.20;;;;;;5027219;28;20068;-78
2024/01/03 07:33:28;;;;;;;3.10;1.98;;;-20.60;91.20;;;;;;5033900;28;20025;-78
2024/01/03 07:35:54;;;;;;;12.18;4.65;;;-20.60;91.10;;;;;;5034361;28;20029;-78
2024/01/03 07:38:20;;;;;;;5.50;4.17;;;-20.50;91.30;;;;;;5034082;28;20554;-78
2024/01/03 07:40:45;;;;;;;5.05;2.97;;;-20.30;91.60;;;;;;5027761;28;20321;-80
2024/01/03 07:43:11;;;;;;;5.30;3.80;;;-20.10;91.70;;;;;;5026912;28;20491;-79
2024/01/03 07:45:37;;;;;;;10.35;4.65;;;-20.00;91.50;;;;;;5033989;28;20041;-80
2024/01/03 07:48:03;;;;;;;7.50;4.70;;;-20.10;91.20;;;;;;5034344;28;20026;-79
2024/01/03 07:50:29;;;;;;;10.52;4.80;;;-20.10;91.10;;;;;;5016378;28;20096;-79
2024/01/03 07:52:55;;;;;;;2.28;1.77;;;-20.20;91.00;;;;;;5034351;28;20025;-80
2024/01/03 07:55:20;;;;;;;9.93;3.60;;;-20.20;90.90;;;;;;5018672;28;20401;-78
2024/01/03 07:57:46;;;;;;;7.70;3.85;;;-20.20;90.90;;;;;;5017983;28;20120;-77
2024/01/03 08:00:13;;;;;;;4.70;2.70;;;-20.10;91.10;;;;;;5035308;28;20037;-79
2024/01/03 08:02:39;;;;;;;10.68;5.95;;;-20.00;91.20;;;;;;5026979;28;20021;-79
2024/01/03 08:05:07;;;;;;;4.53;3.67;;;-20.00;91.20;;;;;;5026129;28;20022;-80
2024/01/03 08:07:33;;;;;;;7.55;3.03;;;-20.00;91.10;;;;;;5031783;28;20060;-77
2024/01/03 08:09:59;;;;;;;9.50;5.57;;;-20.00;90.90;;;;;;5034261;28;20418;-79
2024/01/03 08:12:24;;;;;;;7.18;4.57;;;-20.00;91.00;;;;;;5015914;28;20045;-79
2024/01/03 08:14:50;;;;;;;9.88;4.97;;;-19.90;91.10;;;;;;5028927;28;20433;-79
2024/01/03 08:17:16;;;;;;;4.97;4.55;;;-20.00;90.70;;;;;;5034273;28;20512;-78
2024/01/03 08:19:42;;;;;;;4.10;3.03;;;-20.00;90.50;;;;;;5034379;28;20037;-79
2024/01/03 08:22:08;;;;;;;3.30;3.00;;;-20.10;90.50;;;;;;5034420;28;20267;-79
2024/01/03 08:24:33;;;;;;;12.52;6.32;;;-20.00;90.70;;;;;;5034576;28;20108;-80
2024/01/03 08:26:59;;;;;;;11.35;5.35;;;-19.90;90.80;;;;;;5027836;28;20430;-80
2024/01/03 08:29:25;;;;;;;12.05;5.35;;;-19.80;90.70;;;;;;5034644;28;20026;-80
2024/01/03 08:31:51;;;;;;;12.35;5.03;;;-19.80;90.60;;;;;;5034109;28;20021;-81
2024/01/03 08:34:17;;;;;;;10.90;5.43;;;-19.70;90.70;;;;;;5033211;28;20029;-78
2024/01/03 08:36:44;;;;;;;9.88;4.82;;;-19.60;90.70;;;;;;5033162;28;20032;-79
2024/01/03 08:39:11;;;;;;;15.55;6.38;;;-19.60;90.60;;;;;;5034787;28;20029;-79
2024/01/03 08:41:37;;;;;;;10.65;5.88;;;-19.50;90.80;;;;;;5014805;28;20032;-79
2024/01/03 08:44:05;;;;;;;12.18;7.75;;;-19.40;91.00;;;;;;5029371;28;20578;-80
2024/01/03 08:46:34;;;;;;;14.20;6.03;;;-19.40;91.00;;;;;;5027933;28;20040;-79
2024/01/03 08:49:02;;;;;;;13.65;6.82;;;-19.40;90.70;;;;;;5034853;28;20018;-80
2024/01/03 08:51:28;;;;;;;19.80;6.28;;;-19.40;90.70;;;;;;5032647;28;20026;-79
2024/01/03 08:53:54;;;;;;;9.65;5.85;;;-19.30;90.80;;;;;;5032965;28;20483;-82
2024/01/03 08:56:20;;;;;;;17.00;8.13;;;-19.30;90.60;;;;;;5032639;28;20434;-79
2024/01/03 08:58:47;;;;;;;15.97;6.73;;;-19.30;90.50;;;;;;5032768;28;20027;-78
2024/01/03 09:01:23;;;;;;;6.15;5.38;;;-19.30;90.80;;;;;;5032486;28;20091;-80
2024/01/03 09:03:49;;;;;;;;;;;-19.30;90.60;;;;;;5033309;28;20021;-80
2024/01/03 09:06:19;;;;;;;;;;;-19.20;90.60;;;;;;5029232;28;19952;-79
2024/01/03 09:08:50;;;;;;;6.78;4.00;;;-19.40;90.30;;;;;;5015300;28;19909;-80
2024/01/03 09:11:19;;;;;;;7.63;3.88;;;-19.40;90.20;;;;;;5033763;28;20044;-80
2024/01/03 09:13:49;;;;;;;4.93;3.97;;;-19.40;90.20;;;;;;5018178;28;20437;-81
2024/01/03 09:16:17;;;;;;;18.38;8.18;;;-19.50;90.40;;;;;;5038730;28;20017;-80
2024/01/03 09:18:43;;;;;;;11.25;7.72;;;-19.50;90.60;;;;;;5036964;28;20495;-80
2024/01/03 09:21:09;;;;;;;19.52;9.38;;;-19.50;90.50;;;;;;5032497;28;20022;-80
2024/01/03 09:23:34;;;;;;;10.23;5.35;;;-19.50;90.30;;;;;;5014604;28;20410;-81
2024/01/03 09:26:04;;;;;;;11.20;7.00;;;-19.30;90.50;;;;;;5032904;28;20446;-80
2024/01/03 09:28:30;;;;;;;6.97;3.85;;;-19.30;90.30;;;;;;5010374;28;20423;-80
2024/01/03 09:30:56;;;;;;;14.27;7.25;;;-19.30;90.20;;;;;;5024836;28;20025;-81
2024/01/03 09:33:21;;;;;;;8.43;4.73;;;-19.20;90.40;;;;;;5032598;28;20034;-80
2024/01/03 09:35:47;;;;;;;21.48;11.52;;;-19.20;90.40;;;;;;5030552;28;20406;-80
2024/01/03 09:38:16;;;;;;;16.45;7.22;;;-19.00;90.50;;;;;;5030998;28;20037;-81
2024/01/03 09:40:43;;;;;;;9.27;5.05;;;-19.00;90.20;;;;;;5021062;28;20095;-81
2024/01/03 09:43:12;;;;;;;10.52;6.20;;;-18.80;90.30;;;;;;5013988;28;20025;-79
2024/01/03 09:45:38;;;;;;;17.63;9.40;;;-18.80;90.00;;;;;;5030527;28;20064;-81
2024/01/03 09:48:05;;;;;;;19.23;7.72;;;-18.80;89.80;;;;;;5016805;28;20390;-82
2024/01/03 09:50:32;;;;;;;25.10;8.85;;;-18.80;89.80;;;;;;5010826;28;20655;-81
2024/01/03 09:52:58;;;;;;;;;;;-18.80;89.10;;;;;;5033733;28;20022;-83
2024/01/03 09:55:23;;;;;;;9.52;8.18;;;-18.90;88.60;;;;;;5025957;28;19909;-81
2024/01/03 09:57:54;;;;;;;15.65;7.80;;;-18.90;88.70;;;;;;5030906;28;20072;-80
2024/01/03 10:00:20;;;;;;;9.60;6.30;;;-18.90;89.00;;;;;;5027420;28;20064;-81
2024/01/03 10:02:47;;;;;;;16.50;5.93;;;-18.90;89.60;;;;;;5028814;28;20026;-80
2024/01/03 10:05:20;;;;;;;12.25;7.05;;;-18.70;90.00;;;;;;5031974;28;20558;-80
2024/01/03 10:07:47;;;;;;;10.20;5.65;;;-18.60;90.00;;;;;;5017765;28;20049;-80
2024/01/03 10:10:21;;;;;;;7.88;4.25;;;-18.50;90.10;;;;;;5031229;28;20479;-82
2024/01/03 10:12:46;;;;;;;10.43;5.90;;;-18.60;89.70;;;;;;5033723;28;20045;-82
2024/01/03 10:15:17;;;;;;;12.60;6.30;;;-18.70;88.90;;;;;;5030757;28;20044;-80
2024/01/03 10:17:45;;;;;;;8.13;4.40;;;-18.70;88.70;;;;;;5032137;28;20282;-80
2024/01/03 10:20:25;;;;;;;11.27;6.45;;;-18.80;88.50;;;;;;5029703;28;20022;-83
2024/01/03 10:23:11;;;;;;;11.25;6.05;;;-19.00;88.10;;;;;;5015285;28;20132;-81
2024/01/03 10:25:38;;;;;;;8.57;6.63;;;-19.00;88.30;;;;;;5033113;28;20037;-81
2024/01/03 10:28:09;;;;;;;12.50;5.75;;;-19.00;88.80;;;;;;5029090;28;20071;-86
2024/01/03 10:30:35;;;;;;;16.92;9.57;;;-18.90;88.80;;;;;;5032391;28;20025;-86
2024/01/03 10:33:03;;;;;;;10.85;8.40;;;-18.90;88.20;;;;;;5014823;28;20036;-81
2024/01/03 10:35:29;;;;;;;8.80;6.15;;;-18.90;87.60;;;;;;5035091;28;20034;-82
2024/01/03 10:37:59;;;;;;;15.60;6.97;;;-18.90;88.00;;;;;;5033555;28;20018;-80
2024/01/03 10:40:32;;;;;;;4.70;3.83;;;-18.80;88.40;;;;;;5023795;28;20052;-83
2024/01/03 10:42:58;;;;;;;16.40;9.32;;;-18.70;88.30;;;;;;5033182;28;20063;-83
2024/01/03 10:45:24;;;;;;;;;;;-18.80;87.80;;;;;;5030187;28;20075;-83
2024/01/03 10:47:51;;;;;;;14.05;5.95;;;-18.80;87.70;;;;;;5034539;28;20325;-83
2024/01/03 10:50:17;;;;;;;22.13;9.95;;;-18.70;87.90;;;;;;5034494;28;20053;-84
2024/01/03 10:52:44;;;;;;;16.87;7.80;;;-18.70;87.80;;;;;;5034283;28;20017;-84
2024/01/03 10:55:20;;;;;;;11.55;8.63;;;-18.70;87.80;;;;;;5013220;28;20666;-82
2024/01/03 10:58:20;;;;;;;7.65;6.25;;;-18.70;88.20;;;;;;5013523;28;20033;-81
2024/01/03 11:01:12;;;;;;;16.40;5.60;;;-18.70;88.40;;;;;;5026808;28;20111;-82
2024/01/03 11:04:07;;;;;;;10.52;6.38;;;-18.80;88.10;;;;;;4998283;28;20109;-82
2024/01/03 11:06:45;;;;;;;15.90;7.65;;;-18.80;88.10;;;;;;5012129;28;20044;-82
2024/01/03 11:09:11;;;;;;;9.05;5.25;;;-19.00;88.00;;;;;;5034725;28;20387;-81
2024/01/03 11:11:38;;;;;;;13.82;7.82;;;-19.00;88.40;;;;;;5036226;28;20101;-81
2024/01/03 11:14:30;;;;;;;3.75;3.00;;;-18.90;88.60;;;;;;5020763;28;20116;-80
2024/01/03 11:16:56;;;;;;;15.85;7.38;;;-19.00;88.40;;;;;;5032013;28;20037;-82
2024/01/03 11:19:30;;;;;;;19.13;9.73;;;-19.10;88.50;;;;;;5035066;28;20512;-82
2024/01/03 11:21:58;;;;;;;12.73;7.55;;;-19.10;88.80;;;;;;5020432;28;20577;-82
2024/01/03 11:24:32;;;;;;;15.15;7.03;;;-19.20;88.80;;;;;;5039216;28;20132;-83
2024/01/03 11:27:03;;;;;;;8.60;7.15;;;-19.20;89.30;;;;;;5034900;28;20509;-81
2024/01/03 11:29:35;;;;;;;19.48;9.20;;;-19.20;89.40;;;;;;5033042;28;20317;-80
2024/01/03 11:32:28;;;;;;;22.20;7.70;;;-19.10;89.70;;;;;;5031945;28;20029;-78
2024/01/03 11:34:54;;;;;;;13.32;7.03;;;-19.10;89.60;;;;;;5023257;28;20029;-78
2024/01/03 11:37:22;;;;;;;23.95;11.10;;;-19.20;89.50;;;;;;5033535;28;20025;-78
2024/01/03 11:39:50;;;;;;;19.70;8.75;;;-19.20;89.70;;;;;;5033757;28;20026;-80
2024/01/03 11:42:37;;;;;;;21.70;11.57;;;-19.20;89.80;;;;;;5030226;28;20056;-79
2024/01/03 11:45:11;;;;;;;14.20;7.60;;;-19.20;89.80;;;;;;5034508;28;20038;-79
2024/01/03 11:47:45;;;;;;;11.13;6.88;;;-19.20;89.70;;;;;;5030295;28;20049;-79
2024/01/03 11:50:12;;;;;;;7.90;5.15;;;-19.20;89.70;;;;;;5011287;28;20022;-80
2024/01/03 11:52:41;;;;;;;11.10;5.57;;;-19.30;89.40;;;;;;5032213;28;20014;-78
2024/01/03 11:55:12;;;;;;;9.70;5.30;;;-19.30;90.00;;;;;;5033429;28;20052;-77
2024/01/03 11:57:42;;;;;;;9.57;4.90;;;-19.30;89.70;;;;;;5035416;28;20025;-79
2024/01/03 12:00:12;;;;;;;13.88;8.45;;;-19.40;89.90;;;;;;5033820;28;20024;-78
2024/01/03 12:02:47;;;;;;;12.35;8.52;;;-19.40;90.10;;;;;;5033569;28;20064;-79
2024/01/03 12:05:14;;;;;;;15.30;9.82;;;-19.40;90.20;;;;;;5013569;28;20075;-80
2024/01/03 12:07:40;;;;;;;17.83;7.07;;;-19.40;90.20;;;;;;5030969;28;20025;-79
2024/01/03 12:10:08;;;;;;;10.02;5.75;;;-19.40;90.20;;;;;;5030913;28;20017;-79
2024/01/03 12:12:34;;;;;;;9.73;6.03;;;-19.50;90.30;;;;;;5031429;28;20048;-79
2024/01/03 12:15:00;;;;;;;17.27;7.72;;;-19.50;90.30;;;;;;5032572;28;20025;-79
2024/01/03 12:17:30;;;;;;;12.50;8.38;;;-19.50;90.40;;;;;;5032996;28;20075;-78
2024/01/03 12:20:13;;;;;;;16.20;6.45;;;-19.50;90.50;;;;;;5033564;28;20049;-78
2024/01/03 12:22:39;;;;;;;15.13;8.80;;;-19.50;90.50;;;;;;5028556;28;20407;-79
2024/01/03 12:25:05;;;;;;;8.75;3.88;;;-19.50;90.60;;;;;;5027809;28;20034;-77
2024/01/03 12:27:33;;;;;;;7.63;4.32;;;-19.50;90.60;;;;;;5031151;28;20075;-78
2024/01/03 12:30:18;;;;;;;12.93;6.97;;;-19.50;90.60;;;;;;5030004;28;20083;-80
2024/01/03 12:32:46;;;;;;;8.02;5.95;;;-19.50;90.70;;;;;;5032876;28;20022;-79
2024/01/03 12:35:12;;;;;;;15.15;6.72;;;-19.50;90.80;;;;;;5029768;28;20491;-80
2024/01/03 12:37:47;;;;;;;10.63;8.30;;;-19.40;90.90;;;;;;5027478;28;20017;-80